sensor_id;sensor_type;location;lat;lon;timestamp;pressure;altitude;pressure_sealevel;temperature;humidity
66627;BME280;53498;50.422;14.912;2023-02-11T00:00:48;100806.16;;;-2.13;100.00
66627;BME280;53498;50.422;14.912;2023-02-11T00:03:24;100798.94;;;-2.19;100.00
66627;BME280;53498;50.422;14.912;2023-02-11T00:06:00;100789.78;;;-2.27;100.00
66627;BME280;53498;50.422;14.912;2023-02-11T00:08:26;100788.28;;;-2.35;100.00
66627;BME280;53498;50.422;14.912;2023-02-11T00:10:53;100781.13;;;-2.29;100.00
66627;BME280;53498;50.422;14.912;2023-02-11T00:13:20;100775.63;;;-2.23;100.00
66627;BME280;53498;50.422;14.912;2023-02-11T00:15:46;100773.38;;;-2.30;100.00
66627;BME280;53498;50.422;14.912;2023-02-11T00:18:11;100774.03;;;-2.33;100.00
66627;BME280;53498;50.422;14.912;2023-02-11T00:20:38;100772.25;;;-2.34;100.00
66627;BME280;53498;50.422;14.912;2023-02-11T00:23:04;100770.00;;;-2.41;100.00
66627;BME280;53498;50.422;14.912;2023-02-11T00:25:30;100765.16;;;-2.38;100.00
66627;BME280;53498;50.422;14.912;2023-02-11T00:27:56;100759.13;;;-2.39;100.00
66627;BME280;53498;50.422;14.912;2023-02-11T00:30:21;100758.50;;;-2.36;100.00
66627;BME280;53498;50.422;14.912;2023-02-11T00:32:47;100763.84;;;-2.33;100.00
66627;BME280;53498;50.422;14.912;2023-02-11T00:35:12;100767.16;;;-2.34;100.00
66627;BME280;53498;50.422;14.912;2023-02-11T00:37:38;100769.81;;;-2.33;100.00
66627;BME280;53498;50.422;14.912;2023-02-11T00:40:04;100763.84;;;-2.33;100.00
66627;BME280;53498;50.422;14.912;2023-02-11T00:42:30;100778.34;;;-2.32;100.00
66627;BME280;53498;50.422;14.912;2023-02-11T00:44:55;100765.34;;;-2.25;100.00
66627;BME280;53498;50.422;14.912;2023-02-11T00:47:21;100759.63;;;-2.33;100.00
66627;BME280;53498;50.422;14.912;2023-02-11T00:49:46;100750.06;;;-2.35;100.00
66627;BME280;53498;50.422;14.912;2023-02-11T00:52:12;100745.75;;;-2.36;100.00
66627;BME280;53498;50.422;14.912;2023-02-11T00:54:38;100750.19;;;-2.34;100.00
66627;BME280;53498;50.422;14.912;2023-02-11T00:57:04;100743.50;;;-2.21;100.00
66627;BME280;53498;50.422;14.912;2023-02-11T00:59:30;100738.25;;;-2.13;100.00
66627;BME280;53498;50.422;14.912;2023-02-11T01:01:56;100741.38;;;-2.05;100.00
66627;BME280;53498;50.422;14.912;2023-02-11T01:04:22;100745.44;;;-2.07;100.00
66627;BME280;53498;50.422;14.912;2023-02-11T01:06:47;100743.09;;;-2.16;100.00
66627;BME280;53498;50.422;14.912;2023-02-11T01:09:13;100738.88;;;-2.15;100.00
66627;BME280;53498;50.422;14.912;2023-02-11T01:11:39;100734.75;;;-2.25;100.00
66627;BME280;53498;50.422;14.912;2023-02-11T01:14:04;100726.44;;;-2.22;100.00
66627;BME280;53498;50.422;14.912;2023-02-11T01:16:30;100727.09;;;-2.25;100.00
66627;BME280;53498;50.422;14.912;2023-02-11T01:18:55;100713.81;;;-2.21;100.00
66627;BME280;53498;50.422;14.912;2023-02-11T01:21:21;100711.41;;;-2.19;100.00
66627;BME280;53498;50.422;14.912;2023-02-11T01:23:46;100722.47;;;-2.19;100.00
66627;BME280;53498;50.422;14.912;2023-02-11T01:26:12;100718.25;;;-2.18;100.00
66627;BME280;53498;50.422;14.912;2023-02-11T01:28:38;100717.66;;;-2.26;100.00
66627;BME280;53498;50.422;14.912;2023-02-11T01:31:04;100718.31;;;-2.28;100.00
66627;BME280;53498;50.422;14.912;2023-02-11T01:33:29;100722.41;;;-2.30;100.00
66627;BME280;53498;50.422;14.912;2023-02-11T01:35:59;100704.66;;;-2.29;100.00
66627;BME280;53498;50.422;14.912;2023-02-11T01:38:25;100686.00;;;-2.40;100.00
66627;BME280;53498;50.422;14.912;2023-02-11T01:40:56;100681.94;;;-2.38;100.00
66627;BME280;53498;50.422;14.912;2023-02-11T01:43:23;100681.16;;;-2.37;100.00
66627;BME280;53498;50.422;14.912;2023-02-11T01:48:41;100686.81;;;-2.29;100.00
66627;BME280;53498;50.422;14.912;2023-02-11T01:51:13;100680.59;;;-2.33;100.00
66627;BME280;53498;50.422;14.912;2023-02-11T01:53:41;100696.28;;;-2.28;100.00
66627;BME280;53498;50.422;14.912;2023-02-11T01:56:27;100699.81;;;-2.26;100.00
66627;BME280;53498;50.422;14.912;2023-02-11T01:59:22;100691.41;;;-2.25;100.00
66627;BME280;53498;50.422;14.912;2023-02-11T02:01:54;100685.06;;;-2.30;100.00
66627;BME280;53498;50.422;14.912;2023-02-11T02:04:22;100675.00;;;-2.28;100.00
66627;BME280;53498;50.422;14.912;2023-02-11T02:06:59;100651.16;;;-2.29;100.00
66627;BME280;53498;50.422;14.912;2023-02-11T02:09:28;100640.47;;;-2.35;100.00
66627;BME280;53498;50.422;14.912;2023-02-11T02:11:56;100646.81;;;-2.30;100.00
66627;BME280;53498;50.422;14.912;2023-02-11T02:14:21;100645.06;;;-2.31;100.00
66627;BME280;53498;50.422;14.912;2023-02-11T02:16:47;100641.50;;;-2.33;100.00
66627;BME280;53498;50.422;14.912;2023-02-11T02:24:55;100652.53;;;-2.11;100.00
66627;BME280;53498;50.422;14.912;2023-02-11T02:27:49;100654.53;;;-2.18;100.00
66627;BME280;53498;50.422;14.912;2023-02-11T02:35:42;100662.47;;;-1.92;100.00
66627;BME280;53498;50.422;14.912;2023-02-11T02:38:17;100666.25;;;-1.87;100.00
66627;BME280;53498;50.422;14.912;2023-02-11T02:40:52;100659.38;;;-1.88;100.00
66627;BME280;53498;50.422;14.912;2023-02-11T02:43:26;100663.06;;;-1.84;100.00
66627;BME280;53498;50.422;14.912;2023-02-11T02:45:53;100655.41;;;-1.84;100.00
66627;BME280;53498;50.422;14.912;2023-02-11T02:48:30;100658.47;;;-1.88;100.00
66627;BME280;53498;50.422;14.912;2023-02-11T02:54:06;100637.19;;;-2.00;100.00
66627;BME280;53498;50.422;14.912;2023-02-11T02:56:55;100628.56;;;-1.91;100.00
66627;BME280;53498;50.422;14.912;2023-02-11T03:02:17;100626.31;;;-1.98;100.00
66627;BME280;53498;50.422;14.912;2023-02-11T03:04:59;100611.69;;;-2.00;100.00
66627;BME280;53498;50.422;14.912;2023-02-11T03:07:51;100608.44;;;-1.98;100.00
66627;BME280;53498;50.422;14.912;2023-02-11T03:10:25;100607.66;;;-2.08;100.00
66627;BME280;53498;50.422;14.912;2023-02-11T03:12:52;100603.03;;;-2.02;100.00
66627;BME280;53498;50.422;14.912;2023-02-11T03:15:20;100598.38;;;-1.96;100.00
66627;BME280;53498;50.422;14.912;2023-02-11T03:17:49;100603.47;;;-1.96;100.00
66627;BME280;53498;50.422;14.912;2023-02-11T03:20:17;100591.50;;;-1.97;100.00
66627;BME280;53498;50.422;14.912;2023-02-11T03:22:50;100587.81;;;-2.01;100.00
66627;BME280;53498;50.422;14.912;2023-02-11T03:25:18;100599.91;;;-1.98;100.00
66627;BME280;53498;50.422;14.912;2023-02-11T03:27:53;100596.53;;;-2.21;100.00
66627;BME280;53498;50.422;14.912;2023-02-11T03:30:31;100596.53;;;-2.21;100.00
66627;BME280;53498;50.422;14.912;2023-02-11T03:33:04;100591.78;;;-2.28;100.00
66627;BME280;53498;50.422;14.912;2023-02-11T03:35:48;100590.09;;;-2.27;100.00
66627;BME280;53498;50.422;14.912;2023-02-11T03:38:27;100590.75;;;-2.30;100.00
66627;BME280;53498;50.422;14.912;2023-02-11T03:40:55;100584.13;;;-2.28;100.00
66627;BME280;53498;50.422;14.912;2023-02-11T03:43:31;100581.69;;;-2.26;100.00
66627;BME280;53498;50.422;14.912;2023-02-11T03:45:58;100572.13;;;-2.29;100.00
66627;BME280;53498;50.422;14.912;2023-02-11T03:48:32;100567.06;;;-2.17;100.00
66627;BME280;53498;50.422;14.912;2023-02-11T03:51:01;100568.28;;;-2.24;100.00
66627;BME280;53498;50.422;14.912;2023-02-11T03:53:29;100553.41;;;-2.29;100.00
66627;BME280;53498;50.422;14.912;2023-02-11T03:55:58;100550.44;;;-2.24;100.00
66627;BME280;53498;50.422;14.912;2023-02-11T03:58:26;100541.31;;;-2.32;100.00
66627;BME280;53498;50.422;14.912;2023-02-11T04:00:52;100546.41;;;-2.32;100.00
66627;BME280;53498;50.422;14.912;2023-02-11T04:03:18;100541.53;;;-2.29;100.00
66627;BME280;53498;50.422;14.912;2023-02-11T04:05:44;100542.47;;;-2.28;100.00
66627;BME280;53498;50.422;14.912;2023-02-11T04:08:09;100538.47;;;-2.25;100.00
66627;BME280;53498;50.422;14.912;2023-02-11T04:10:35;100531.16;;;-2.20;100.00
66627;BME280;53498;50.422;14.912;2023-02-11T04:13:00;100532.16;;;-2.18;100.00
66627;BME280;53498;50.422;14.912;2023-02-11T04:15:26;100528.97;;;-2.16;100.00
66627;BME280;53498;50.422;14.912;2023-02-11T04:17:51;100527.63;;;-2.11;100.00
66627;BME280;53498;50.422;14.912;2023-02-11T04:20:17;100517.44;;;-1.99;100.00
66627;BME280;53498;50.422;14.912;2023-02-11T04:22:43;100515.78;;;-1.98;100.00
66627;BME280;53498;50.422;14.912;2023-02-11T04:25:09;100517.44;;;-1.99;100.00
66627;BME280;53498;50.422;14.912;2023-02-11T04:27:35;100513.44;;;-2.07;100.00
66627;BME280;53498;50.422;14.912;2023-02-11T04:30:02;100503.91;;;-2.10;100.00
66627;BME280;53498;50.422;14.912;2023-02-11T04:32:27;100493.16;;;-2.05;100.00
66627;BME280;53498;50.422;14.912;2023-02-11T04:34:53;100485.94;;;-2.11;100.00
66627;BME280;53498;50.422;14.912;2023-02-11T04:37:19;100498.34;;;-2.04;100.00
66627;BME280;53498;50.422;14.912;2023-02-11T04:39:45;100501.69;;;-2.05;100.00
66627;BME280;53498;50.422;14.912;2023-02-11T04:42:11;100502.28;;;-1.97;100.00
66627;BME280;53498;50.422;14.912;2023-02-11T04:44:36;100487.72;;;-1.98;100.00
66627;BME280;53498;50.422;14.912;2023-02-11T04:47:02;100491.28;;;-1.96;100.00
66627;BME280;53498;50.422;14.912;2023-02-11T04:49:28;100481.06;;;-1.96;100.00
66627;BME280;53498;50.422;14.912;2023-02-11T04:51:53;100483.19;;;-2.02;100.00
66627;BME280;53498;50.422;14.912;2023-02-11T04:54:19;100479.84;;;-2.01;100.00
66627;BME280;53498;50.422;14.912;2023-02-11T04:56:44;100487.72;;;-1.98;100.00
66627;BME280;53498;50.422;14.912;2023-02-11T04:59:10;100487.94;;;-1.95;100.00
66627;BME280;53498;50.422;14.912;2023-02-11T05:01:37;100480.94;;;-1.98;100.00
66627;BME280;53498;50.422;14.912;2023-02-11T05:04:03;100493.84;;;-1.96;100.00
66627;BME280;53498;50.422;14.912;2023-02-11T05:06:29;100485.41;;;-1.95;100.00
66627;BME280;53498;50.422;14.912;2023-02-11T05:08:55;100478.84;;;-1.92;100.00
66627;BME280;53498;50.422;14.912;2023-02-11T05:11:22;100476.66;;;-1.87;100.00
66627;BME280;53498;50.422;14.912;2023-02-11T05:13:48;100474.41;;;-1.82;100.00
66627;BME280;53498;50.422;14.912;2023-02-11T05:16:14;100477.31;;;-1.78;100.00
66627;BME280;53498;50.422;14.912;2023-02-11T05:18:41;100478.84;;;-1.80;100.00
66627;BME280;53498;50.422;14.912;2023-02-11T05:21:08;100477.75;;;-1.83;100.00
66627;BME280;53498;50.422;14.912;2023-02-11T05:23:35;100486.72;;;-1.77;100.00
66627;BME280;53498;50.422;14.912;2023-02-11T05:26:01;100488.69;;;-1.73;100.00
66627;BME280;53498;50.422;14.912;2023-02-11T05:28:27;100485.72;;;-1.67;100.00
66627;BME280;53498;50.422;14.912;2023-02-11T05:30:53;100484.03;;;-1.67;100.00
66627;BME280;53498;50.422;14.912;2023-02-11T05:33:19;100492.13;;;-1.60;100.00
66627;BME280;53498;50.422;14.912;2023-02-11T05:35:44;100496.47;;;-1.59;100.00
66627;BME280;53498;50.422;14.912;2023-02-11T05:38:10;100491.03;;;-1.76;100.00
66627;BME280;53498;50.422;14.912;2023-02-11T05:40:36;100489.72;;;-1.71;100.00
66627;BME280;53498;50.422;14.912;2023-02-11T05:43:01;100482.06;;;-1.71;100.00
66627;BME280;53498;50.422;14.912;2023-02-11T05:45:27;100476.72;;;-1.62;100.00
66627;BME280;53498;50.422;14.912;2023-02-11T05:47:53;100484.91;;;-1.54;100.00
66627;BME280;53498;50.422;14.912;2023-02-11T05:50:18;100478.84;;;-1.56;100.00
66627;BME280;53498;50.422;14.912;2023-02-11T05:52:44;100476.28;;;-1.56;100.00
66627;BME280;53498;50.422;14.912;2023-02-11T05:55:09;100475.84;;;-1.63;100.00
66627;BME280;53498;50.422;14.912;2023-02-11T05:57:35;100469.53;;;-1.68;100.00
66627;BME280;53498;50.422;14.912;2023-02-11T06:00:02;100476.59;;;-1.64;100.00
66627;BME280;53498;50.422;14.912;2023-02-11T06:02:28;100487.03;;;-1.60;100.00
66627;BME280;53498;50.422;14.912;2023-02-11T06:04:54;100490.69;;;-1.57;100.00
66627;BME280;53498;50.422;14.912;2023-02-11T06:07:19;100478.13;;;-1.54;100.00
66627;BME280;53498;50.422;14.912;2023-02-11T06:09:45;100482.59;;;-1.63;100.00
66627;BME280;53498;50.422;14.912;2023-02-11T06:12:10;100481.16;;;-1.59;100.00
66627;BME280;53498;50.422;14.912;2023-02-11T06:14:36;100479.28;;;-1.62;100.00
66627;BME280;53498;50.422;14.912;2023-02-11T06:17:02;100477.03;;;-1.57;100.00
66627;BME280;53498;50.422;14.912;2023-02-11T06:19:28;100477.25;;;-1.54;100.00
66627;BME280;53498;50.422;14.912;2023-02-11T06:21:54;100480.16;;;-1.50;100.00
66627;BME280;53498;50.422;14.912;2023-02-11T06:24:20;100478.03;;;-1.44;100.00
66627;BME280;53498;50.422;14.912;2023-02-11T06:26:46;100473.44;;;-1.36;100.00
66627;BME280;53498;50.422;14.912;2023-02-11T06:29:11;100465.72;;;-1.49;100.00
66627;BME280;53498;50.422;14.912;2023-02-11T06:31:37;100467.47;;;-1.48;100.00
66627;BME280;53498;50.422;14.912;2023-02-11T06:34:03;100473.22;;;-1.39;100.00
66627;BME280;53498;50.422;14.912;2023-02-11T06:36:29;100464.38;;;-1.44;100.00
66627;BME280;53498;50.422;14.912;2023-02-11T06:38:58;100465.47;;;-1.41;100.00
66627;BME280;53498;50.422;14.912;2023-02-11T06:41:23;100470.88;;;-1.36;100.00
66627;BME280;53498;50.422;14.912;2023-02-11T06:43:49;100468.34;;;-1.36;100.00
66627;BME280;53498;50.422;14.912;2023-02-11T06:46:16;100469.22;;;-1.35;100.00
66627;BME280;53498;50.422;14.912;2023-02-11T06:48:42;100463.44;;;-1.33;100.00
66627;BME280;53498;50.422;14.912;2023-02-11T06:51:11;100468.41;;;-1.23;100.00
66627;BME280;53498;50.422;14.912;2023-02-11T06:53:39;100463.84;;;-1.15;100.00
66627;BME280;53498;50.422;14.912;2023-02-11T06:56:08;100464.88;;;-1.25;100.00
66627;BME280;53498;50.422;14.912;2023-02-11T06:58:35;100460.28;;;-1.17;100.00
66627;BME280;53498;50.422;14.912;2023-02-11T07:01:06;100462.16;;;-1.14;100.00
66627;BME280;53498;50.422;14.912;2023-02-11T07:03:41;100459.16;;;-1.09;100.00
66627;BME280;53498;50.422;14.912;2023-02-11T07:06:11;100464.28;;;-1.21;100.00
66627;BME280;53498;50.422;14.912;2023-02-11T07:08:37;100469.78;;;-1.03;100.00
66627;BME280;53498;50.422;14.912;2023-02-11T07:11:12;100475.81;;;-0.89;100.00
66627;BME280;53498;50.422;14.912;2023-02-11T07:13:38;100486.50;;;-0.95;100.00
66627;BME280;53498;50.422;14.912;2023-02-11T07:16:05;100485.34;;;-1.11;100.00
66627;BME280;53498;50.422;14.912;2023-02-11T07:18:31;100483.28;;;-1.29;100.00
66627;BME280;53498;50.422;14.912;2023-02-11T07:20:57;100477.75;;;-1.35;100.00
66627;BME280;53498;50.422;14.912;2023-02-11T07:23:23;100483.22;;;-1.42;100.00
66627;BME280;53498;50.422;14.912;2023-02-11T07:25:48;100479.47;;;-1.47;100.00
66627;BME280;53498;50.422;14.912;2023-02-11T07:28:14;100477.91;;;-1.45;100.00
66627;BME280;53498;50.422;14.912;2023-02-11T07:30:40;100473.88;;;-1.30;100.00
66627;BME280;53498;50.422;14.912;2023-02-11T07:33:05;100476.75;;;-1.25;100.00
66627;BME280;53498;50.422;14.912;2023-02-11T07:35:31;100484.03;;;-1.06;100.00
66627;BME280;53498;50.422;14.912;2023-02-11T07:37:56;100493.72;;;-0.89;100.00
66627;BME280;53498;50.422;14.912;2023-02-11T07:40:22;100495.81;;;-0.83;100.00
66627;BME280;53498;50.422;14.912;2023-02-11T07:42:47;100495.25;;;-0.91;100.00
66627;BME280;53498;50.422;14.912;2023-02-11T07:45:13;100490.34;;;-0.88;100.00
66627;BME280;53498;50.422;14.912;2023-02-11T07:47:38;100491.38;;;-0.86;100.00
66627;BME280;53498;50.422;14.912;2023-02-11T07:50:04;100472.34;;;-0.78;100.00
66627;BME280;53498;50.422;14.912;2023-02-11T07:52:31;100473.72;;;-0.70;100.00
66627;BME280;53498;50.422;14.912;2023-02-11T07:54:57;100479.25;;;-0.63;100.00
66627;BME280;53498;50.422;14.912;2023-02-11T07:57:22;100479.78;;;-0.56;100.00
66627;BME280;53498;50.422;14.912;2023-02-11T07:59:48;100477.50;;;-0.51;100.00
66627;BME280;53498;50.422;14.912;2023-02-11T08:02:13;100466.81;;;-0.45;100.00
66627;BME280;53498;50.422;14.912;2023-02-11T08:04:39;100456.31;;;-0.37;100.00
66627;BME280;53498;50.422;14.912;2023-02-11T08:07:04;100466.34;;;-0.40;100.00
66627;BME280;53498;50.422;14.912;2023-02-11T08:09:31;100457.00;;;-0.39;100.00
66627;BME280;53498;50.422;14.912;2023-02-11T08:11:56;100466.13;;;-0.43;100.00
66627;BME280;53498;50.422;14.912;2023-02-11T08:14:22;100462.41;;;-0.35;100.00
66627;BME280;53498;50.422;14.912;2023-02-11T08:16:49;100473.75;;;-0.18;100.00
66627;BME280;53498;50.422;14.912;2023-02-11T08:19:16;100465.88;;;-0.08;99.94
66627;BME280;53498;50.422;14.912;2023-02-11T08:21:42;100469.81;;;0.14;99.76
66627;BME280;53498;50.422;14.912;2023-02-11T08:24:08;100475.59;;;0.25;99.51
66627;BME280;53498;50.422;14.912;2023-02-11T08:26:34;100470.19;;;0.33;99.07
66627;BME280;53498;50.422;14.912;2023-02-11T08:29:06;100468.91;;;0.40;99.26
66627;BME280;53498;50.422;14.912;2023-02-11T08:31:33;100462.22;;;0.42;98.86
66627;BME280;53498;50.422;14.912;2023-02-11T08:33:59;100460.78;;;0.60;98.20
66627;BME280;53498;50.422;14.912;2023-02-11T08:36:34;100448.06;;;0.62;97.96
66627;BME280;53498;50.422;14.912;2023-02-11T08:39:02;100441.69;;;0.55;98.89
66627;BME280;53498;50.422;14.912;2023-02-11T08:41:30;100448.00;;;0.60;99.32
66627;BME280;53498;50.422;14.912;2023-02-11T08:43:57;100457.19;;;0.72;99.12
66627;BME280;53498;50.422;14.912;2023-02-11T08:46:22;100453.44;;;0.80;98.83
66627;BME280;53498;50.422;14.912;2023-02-11T08:48:48;100465.44;;;0.94;98.37
66627;BME280;53498;50.422;14.912;2023-02-11T08:51:16;100460.31;;;0.94;98.39
66627;BME280;53498;50.422;14.912;2023-02-11T08:53:43;100471.50;;;0.96;98.15
66627;BME280;53498;50.422;14.912;2023-02-11T08:56:09;100479.19;;;0.96;97.85
66627;BME280;53498;50.422;14.912;2023-02-11T08:58:35;100469.63;;;1.07;97.09
66627;BME280;53498;50.422;14.912;2023-02-11T09:01:01;100469.69;;;1.08;97.24
66627;BME280;53498;50.422;14.912;2023-02-11T09:03:26;100471.22;;;1.20;97.50
66627;BME280;53498;50.422;14.912;2023-02-11T09:05:52;100462.31;;;1.28;97.15
66627;BME280;53498;50.422;14.912;2023-02-11T09:08:21;100450.72;;;1.34;97.01
66627;BME280;53498;50.422;14.912;2023-02-11T09:10:47;100443.22;;;1.52;96.63
66627;BME280;53498;50.422;14.912;2023-02-11T09:13:13;100439.00;;;1.68;95.87
66627;BME280;53498;50.422;14.912;2023-02-11T09:15:38;100442.97;;;1.77;95.19
66627;BME280;53498;50.422;14.912;2023-02-11T09:18:04;100428.63;;;1.81;95.09
66627;BME280;53498;50.422;14.912;2023-02-11T09:20:30;100429.13;;;1.90;94.66
66627;BME280;53498;50.422;14.912;2023-02-11T09:22:57;100432.75;;;1.94;94.36
66627;BME280;53498;50.422;14.912;2023-02-11T09:25:23;100433.91;;;1.99;94.67
66627;BME280;53498;50.422;14.912;2023-02-11T09:27:49;100450.13;;;1.98;94.62
66627;BME280;53498;50.422;14.912;2023-02-11T09:30:16;100456.13;;;1.98;94.53
66627;BME280;53498;50.422;14.912;2023-02-11T09:32:42;100452.97;;;2.19;94.11
66627;BME280;53498;50.422;14.912;2023-02-11T09:35:07;100462.97;;;2.29;93.96
66627;BME280;53498;50.422;14.912;2023-02-11T09:37:33;100460.41;;;2.29;93.59
66627;BME280;53498;50.422;14.912;2023-02-11T09:39:58;100463.03;;;2.45;93.55
66627;BME280;53498;50.422;14.912;2023-02-11T09:45:32;100475.50;;;2.70;92.56
66627;BME280;53498;50.422;14.912;2023-02-11T09:48:06;100480.97;;;2.76;92.31
66627;BME280;53498;50.422;14.912;2023-02-11T09:50:40;100480.97;;;2.76;91.04
66627;BME280;53498;50.422;14.912;2023-02-11T09:53:24;100483.41;;;2.90;91.14
66627;BME280;53498;50.422;14.912;2023-02-11T09:55:53;100488.16;;;2.98;91.13
66627;BME280;53498;50.422;14.912;2023-02-11T09:58:27;100485.81;;;3.03;90.29
66627;BME280;53498;50.422;14.912;2023-02-11T10:06:35;100472.94;;;3.03;90.95
66627;BME280;53498;50.422;14.912;2023-02-11T10:11:57;100438.97;;;3.09;89.99
66627;BME280;53498;50.422;14.912;2023-02-11T10:17:11;100417.44;;;3.23;89.88
66627;BME280;53498;50.422;14.912;2023-02-11T10:22:30;100433.03;;;3.26;88.79
66627;BME280;53498;50.422;14.912;2023-02-11T10:24:58;100431.88;;;3.37;89.00
66627;BME280;53498;50.422;14.912;2023-02-11T10:27:30;100427.56;;;3.20;89.19
66627;BME280;53498;50.422;14.912;2023-02-11T10:30:04;100406.56;;;3.29;89.23
66627;BME280;53498;50.422;14.912;2023-02-11T10:32:38;100412.13;;;3.20;89.84
66627;BME280;53498;50.422;14.912;2023-02-11T10:35:15;100400.09;;;3.03;90.38
66627;BME280;53498;50.422;14.912;2023-02-11T10:37:42;100405.19;;;3.01;90.97
66627;BME280;53498;50.422;14.912;2023-02-11T10:40:20;100405.06;;;3.16;90.68
66627;BME280;53498;50.422;14.912;2023-02-11T10:42:55;100394.28;;;3.07;91.22
66627;BME280;53498;50.422;14.912;2023-02-11T10:45:32;100384.06;;;3.24;91.08
66627;BME280;53498;50.422;14.912;2023-02-11T10:48:00;100387.84;;;3.31;90.34
66627;BME280;53498;50.422;14.912;2023-02-11T10:50:28;100393.16;;;3.18;90.76
66627;BME280;53498;50.422;14.912;2023-02-11T10:53:11;100382.53;;;3.28;90.86
66627;BME280;53498;50.422;14.912;2023-02-11T10:55:38;100385.41;;;3.34;90.95
66627;BME280;53498;50.422;14.912;2023-02-11T10:58:03;100384.75;;;3.38;90.52
66627;BME280;53498;50.422;14.912;2023-02-11T11:00:41;100383.00;;;3.37;90.57
66627;BME280;53498;50.422;14.912;2023-02-11T11:03:19;100377.63;;;3.33;90.94
66627;BME280;53498;50.422;14.912;2023-02-11T11:05:50;100386.69;;;3.42;91.21
66627;BME280;53498;50.422;14.912;2023-02-11T11:08:17;100394.75;;;3.32;91.62
66627;BME280;53498;50.422;14.912;2023-02-11T11:10:45;100387.06;;;3.50;91.27
66627;BME280;53498;50.422;14.912;2023-02-11T11:13:30;100390.97;;;3.60;90.90
66627;BME280;53498;50.422;14.912;2023-02-11T11:18:41;100407.41;;;3.45;91.58
66627;BME280;53498;50.422;14.912;2023-02-11T11:23:56;100421.31;;;3.49;91.80
66627;BME280;53498;50.422;14.912;2023-02-11T11:26:37;100417.56;;;3.42;92.17
66627;BME280;53498;50.422;14.912;2023-02-11T11:29:18;100403.50;;;3.54;91.94
66627;BME280;53498;50.422;14.912;2023-02-11T11:31:56;100397.13;;;3.63;91.76
66627;BME280;53498;50.422;14.912;2023-02-11T11:34:36;100388.69;;;3.66;91.65
66627;BME280;53498;50.422;14.912;2023-02-11T11:37:22;100383.69;;;3.69;91.52
66627;BME280;53498;50.422;14.912;2023-02-11T11:43:05;100382.38;;;3.77;91.46
66627;BME280;53498;50.422;14.912;2023-02-11T11:45:37;100377.22;;;3.77;91.38
66627;BME280;53498;50.422;14.912;2023-02-11T11:48:11;100369.00;;;3.84;91.26
66627;BME280;53498;50.422;14.912;2023-02-11T11:50:56;100369.06;;;3.86;91.08
66627;BME280;53498;50.422;14.912;2023-02-11T11:56:12;100358.09;;;3.90;91.33
66627;BME280;53498;50.422;14.912;2023-02-11T11:58:38;100347.28;;;3.97;91.51
66627;BME280;53498;50.422;14.912;2023-02-11T12:06:38;100367.00;;;3.97;91.95
66627;BME280;53498;50.422;14.912;2023-02-11T12:15:07;100357.72;;;4.00;92.32
66627;BME280;53498;50.422;14.912;2023-02-11T12:28:51;100357.88;;;4.03;94.38
66627;BME280;53498;50.422;14.912;2023-02-11T12:34:31;100356.31;;;4.07;94.99
66627;BME280;53498;50.422;14.912;2023-02-11T12:39:41;100355.44;;;4.06;95.69
66627;BME280;53498;50.422;14.912;2023-02-11T12:45:34;100357.13;;;4.06;95.94
66627;BME280;53498;50.422;14.912;2023-02-11T12:54:06;100346.78;;;4.04;96.92
66627;BME280;53498;50.422;14.912;2023-02-11T12:59:11;100345.38;;;3.93;97.58
66627;BME280;53498;50.422;14.912;2023-02-11T13:01:40;100344.28;;;3.88;97.56
66627;BME280;53498;50.422;14.912;2023-02-11T13:04:22;100342.06;;;3.96;97.75
66627;BME280;53498;50.422;14.912;2023-02-11T13:06:56;100334.13;;;3.91;97.96
66627;BME280;53498;50.422;14.912;2023-02-11T13:09:29;100331.63;;;3.92;98.11
66627;BME280;53498;50.422;14.912;2023-02-11T13:11:59;100331.78;;;3.96;97.88
66627;BME280;53498;50.422;14.912;2023-02-11T13:14:49;100322.22;;;3.93;97.98
66627;BME280;53498;50.422;14.912;2023-02-11T13:17:23;100319.84;;;3.98;98.33
66627;BME280;53498;50.422;14.912;2023-02-11T13:19:56;100314.69;;;3.98;98.02
66627;BME280;53498;50.422;14.912;2023-02-11T13:22:43;100314.97;;;4.04;97.73
66627;BME280;53498;50.422;14.912;2023-02-11T13:30:39;100297.72;;;4.21;97.82
66627;BME280;53498;50.422;14.912;2023-02-11T13:35:44;100300.22;;;4.19;97.80
66627;BME280;53498;50.422;14.912;2023-02-11T13:38:28;100321.84;;;4.23;97.81
66627;BME280;53498;50.422;14.912;2023-02-11T13:43:27;100326.66;;;4.34;97.04
66627;BME280;53498;50.422;14.912;2023-02-11T13:45:59;100329.56;;;4.23;97.79
66627;BME280;53498;50.422;14.912;2023-02-11T13:48:27;100319.50;;;4.27;97.80
66627;BME280;53498;50.422;14.912;2023-02-11T13:50:58;100326.94;;;4.21;97.83
66627;BME280;53498;50.422;14.912;2023-02-11T13:53:25;100331.41;;;4.25;98.19
66627;BME280;53498;50.422;14.912;2023-02-11T13:56:03;100329.50;;;4.21;97.72
66627;BME280;53498;50.422;14.912;2023-02-11T14:00:55;100326.66;;;4.15;98.64
66627;BME280;53498;50.422;14.912;2023-02-11T14:03:33;100322.53;;;4.18;98.61
66627;BME280;53498;50.422;14.912;2023-02-11T14:06:21;100320.09;;;4.22;98.38
66627;BME280;53498;50.422;14.912;2023-02-11T14:09:35;100312.44;;;4.23;98.08
66627;BME280;53498;50.422;14.912;2023-02-11T14:12:21;100310.66;;;4.22;98.12
66627;BME280;53498;50.422;14.912;2023-02-11T14:15:16;100320.69;;;4.16;98.81
66627;BME280;53498;50.422;14.912;2023-02-11T14:17:42;100320.31;;;4.26;98.80
66627;BME280;53498;50.422;14.912;2023-02-11T14:20:31;100318.94;;;4.15;98.64
66627;BME280;53498;50.422;14.912;2023-02-11T14:22:58;100320.81;;;4.19;98.47
66627;BME280;53498;50.422;14.912;2023-02-11T14:25:24;100327.41;;;4.12;99.08
66627;BME280;53498;50.422;14.912;2023-02-11T14:27:52;100327.34;;;4.11;99.06
66627;BME280;53498;50.422;14.912;2023-02-11T14:30:35;100330.06;;;4.14;98.81